createdAt,value
2022-11-18T00:03:44.141Z,11.60
2022-11-18T00:08:44.078Z,11.30
2022-11-18T00:13:43.980Z,12.10
2022-11-18T00:18:43.913Z,12.10
2022-11-18T00:23:43.825Z,12.00
2022-11-18T00:28:43.747Z,12.70
2022-11-18T00:33:43.704Z,12.00
2022-11-18T00:38:43.607Z,13.10
2022-11-18T00:43:43.577Z,13.60
2022-11-18T00:48:43.482Z,12.40
2022-11-18T00:53:43.402Z,12.50
2022-11-18T00:58:43.377Z,12.60
2022-11-18T01:03:43.289Z,12.40
2022-11-18T01:08:43.211Z,13.90
2022-11-18T01:13:43.167Z,13.20
2022-11-18T01:18:43.089Z,12.60
2022-11-18T01:23:43.027Z,13.50
2022-11-18T01:28:43.004Z,13.90
2022-11-18T01:33:42.966Z,13.60
2022-11-18T01:38:42.855Z,13.40
2022-11-18T01:43:42.792Z,13.60
2022-11-18T01:48:42.684Z,13.90
2022-11-18T01:53:42.641Z,13.70
2022-11-18T01:58:42.593Z,14.00
2022-11-18T02:03:42.508Z,13.70
2022-11-18T02:08:42.461Z,13.80
2022-11-18T02:13:42.411Z,13.60
2022-11-18T02:18:42.345Z,13.80
2022-11-18T02:23:42.257Z,13.30
2022-11-18T02:28:42.188Z,13.60
2022-11-18T02:33:42.109Z,14.40
2022-11-18T02:38:42.058Z,13.30
2022-11-18T02:43:42.002Z,13.50
2022-11-18T02:48:41.928Z,12.70
2022-11-18T02:53:41.864Z,12.50
2022-11-18T02:58:41.788Z,13.20
2022-11-18T03:03:41.719Z,13.10
2022-11-18T03:08:41.686Z,13.00
2022-11-18T03:13:41.623Z,12.70
2022-11-18T03:18:41.523Z,12.70
2022-11-18T03:23:41.484Z,11.80
2022-11-18T03:28:41.412Z,12.70
2022-11-18T03:33:41.362Z,11.70
2022-11-18T03:38:41.296Z,10.70
2022-11-18T03:43:41.216Z,11.30
2022-11-18T03:48:41.170Z,11.10
2022-11-18T03:53:41.132Z,11.70
2022-11-18T03:58:41.005Z,11.30
2022-11-18T04:03:40.965Z,11.50
2022-11-18T04:08:40.882Z,10.90
2022-11-18T04:13:40.841Z,11.40
2022-11-18T04:18:40.755Z,12.40
2022-11-18T04:23:40.703Z,12.70
2022-11-18T04:28:40.642Z,13.40
2022-11-18T04:33:40.571Z,13.80
2022-11-18T04:38:40.542Z,14.40
2022-11-18T04:43:40.451Z,15.00
2022-11-18T04:48:40.406Z,14.70
2022-11-18T04:53:40.351Z,15.20
2022-11-18T04:58:40.259Z,16.00
2022-11-18T05:03:40.218Z,15.50
2022-11-18T05:08:40.138Z,15.60
2022-11-18T05:13:40.040Z,14.40
2022-11-18T05:18:39.998Z,14.30
2022-11-18T05:23:39.918Z,16.10
2022-11-18T05:28:39.859Z,15.30
2022-11-18T05:33:39.820Z,14.60
2022-11-18T05:38:39.726Z,13.60
2022-11-18T05:43:39.656Z,14.80
2022-11-18T05:48:39.584Z,14.60
2022-11-18T05:53:39.521Z,14.00
2022-11-18T05:58:39.472Z,14.70
2022-11-18T06:03:39.402Z,14.00
2022-11-18T06:08:39.366Z,14.00
2022-11-18T06:13:39.284Z,14.30
2022-11-18T06:18:39.219Z,13.90
2022-11-18T06:23:39.172Z,15.00
2022-11-18T06:28:39.852Z,13.60
2022-11-18T06:33:38.984Z,13.00
2022-11-18T06:38:39.010Z,13.50
2022-11-18T06:43:38.882Z,13.70
2022-11-18T06:48:38.793Z,13.10
2022-11-18T06:53:38.754Z,14.30
2022-11-18T06:58:38.723Z,13.50
2022-11-18T07:03:38.637Z,13.50
2022-11-18T07:08:38.514Z,13.50
2022-11-18T07:13:43.426Z,12.90
2022-11-18T07:18:39.407Z,12.30
2022-11-18T07:23:38.394Z,12.00
2022-11-18T07:28:38.259Z,11.30
2022-11-18T07:33:38.214Z,11.10
2022-11-18T07:38:38.150Z,12.00
2022-11-18T07:43:38.048Z,11.40
2022-11-18T07:48:38.116Z,11.60
2022-11-18T07:53:37.963Z,11.70
2022-11-18T07:58:37.915Z,11.40
2022-11-18T08:03:37.845Z,10.10
2022-11-18T08:08:37.731Z,10.30
2022-11-18T08:13:37.712Z,9.70
2022-11-18T08:18:37.622Z,10.00
2022-11-18T08:23:41.961Z,10.20
2022-11-18T08:28:38.582Z,11.40
2022-11-18T08:33:37.532Z,11.70
2022-11-18T08:38:37.392Z,11.50
2022-11-18T08:43:37.326Z,10.80
2022-11-18T08:48:37.314Z,11.50
2022-11-18T08:53:37.322Z,12.00
2022-11-18T08:58:37.165Z,13.20
2022-11-18T09:03:37.111Z,14.70
2022-11-18T09:08:37.053Z,14.80
2022-11-18T09:14:14.348Z,15.30
2022-11-18T09:18:37.852Z,16.50
2022-11-18T09:23:36.792Z,15.80
2022-11-18T09:28:36.784Z,15.00
2022-11-18T09:33:36.771Z,15.60
2022-11-18T09:38:36.571Z,16.30
2022-11-18T09:43:36.534Z,16.30
2022-11-18T09:48:36.775Z,16.90
2022-11-18T09:53:36.400Z,17.60
2022-11-18T09:58:36.491Z,18.20
2022-11-18T10:03:36.376Z,17.80
2022-11-18T10:08:36.274Z,18.00
2022-11-18T10:13:36.446Z,19.00
2022-11-18T10:19:05.537Z,18.60
2022-11-18T10:23:37.035Z,18.60
2022-11-18T10:28:35.956Z,18.40
2022-11-18T10:33:35.966Z,18.20
2022-11-18T10:38:35.913Z,16.30
2022-11-18T10:43:35.760Z,15.70
2022-11-18T10:48:35.813Z,15.20
2022-11-18T10:53:35.712Z,14.40
2022-11-18T10:58:35.606Z,13.30
2022-11-18T11:03:35.492Z,12.10
2022-11-18T11:08:37.463Z,12.10
2022-11-18T11:13:35.410Z,13.10
2022-11-18T11:18:35.323Z,14.30
2022-11-18T11:23:35.221Z,15.10
2022-11-18T11:28:35.189Z,14.60
2022-11-18T11:33:35.206Z,15.30
2022-11-18T11:38:35.180Z,15.30
2022-11-18T11:43:35.001Z,15.30
2022-11-18T11:48:34.914Z,14.80
2022-11-18T11:53:34.960Z,16.20
2022-11-18T11:58:34.790Z,16.20
2022-11-18T12:03:35.618Z,18.20
2022-11-18T12:08:34.738Z,19.10
2022-11-18T12:13:34.724Z,19.80
2022-11-18T12:18:34.590Z,20.40
2022-11-18T12:23:38.358Z,21.30
2022-11-18T12:28:34.486Z,20.20
2022-11-18T12:33:34.374Z,20.80
2022-11-18T12:38:34.326Z,21.90
2022-11-18T12:43:34.204Z,20.70
2022-11-18T12:48:34.788Z,19.60
2022-11-18T12:53:43.114Z,19.40
2022-11-18T12:58:38.129Z,19.70
2022-11-18T13:03:34.952Z,22.30
2022-11-18T13:08:33.932Z,23.60
2022-11-18T13:13:33.846Z,23.70
2022-11-18T13:18:33.801Z,24.00
2022-11-18T13:23:33.722Z,24.00
2022-11-18T13:28:33.700Z,24.60
2022-11-18T13:33:33.676Z,25.50
2022-11-18T13:38:33.510Z,21.80
2022-11-18T13:43:33.548Z,23.50
2022-11-18T13:48:33.487Z,23.60
2022-11-18T13:53:33.318Z,24.40
2022-11-18T13:58:40.071Z,24.30
2022-11-18T14:03:34.335Z,22.70
2022-11-18T14:08:33.165Z,22.70
2022-11-18T14:13:33.047Z,22.10
2022-11-18T14:18:33.038Z,22.80
2022-11-18T14:23:33.128Z,23.70
2022-11-18T14:28:32.986Z,21.90
2022-11-18T14:33:33.814Z,23.00
2022-11-18T14:38:43.585Z,23.10
2022-11-18T14:43:33.853Z,23.00
2022-11-18T14:48:33.006Z,23.00
2022-11-18T14:53:32.809Z,23.20
2022-11-18T14:58:33.393Z,23.70
2022-11-18T15:03:32.446Z,23.90
2022-11-18T15:08:32.364Z,23.40
2022-11-18T15:13:32.322Z,24.00
2022-11-18T15:18:33.690Z,22.50
2022-11-18T15:23:32.989Z,23.50
2022-11-18T15:28:32.529Z,24.10
2022-11-18T15:33:32.027Z,24.40
2022-11-18T15:38:32.090Z,24.50
2022-11-18T15:43:31.925Z,24.00
2022-11-18T15:48:31.890Z,23.60
2022-11-18T15:53:31.784Z,23.70
2022-11-18T15:58:35.906Z,24.00
2022-11-18T16:03:31.690Z,25.60
2022-11-18T16:08:31.599Z,23.60
2022-11-18T16:13:31.556Z,24.40
2022-11-18T16:18:33.452Z,24.20
2022-11-18T16:23:31.427Z,24.50
2022-11-18T16:28:31.300Z,24.60
2022-11-18T16:33:31.236Z,25.70
2022-11-18T16:38:31.181Z,27.00
2022-11-18T16:43:31.108Z,25.60
2022-11-18T16:48:31.077Z,24.90
2022-11-18T16:53:30.966Z,23.70
2022-11-18T16:58:31.401Z,22.30
2022-11-18T17:03:31.064Z,21.10
2022-11-18T17:08:30.899Z,22.40
2022-11-18T17:13:30.967Z,21.90
2022-11-18T17:18:31.144Z,20.40
2022-11-18T17:23:30.613Z,19.90
2022-11-18T17:28:30.651Z,19.20
2022-11-18T17:33:30.843Z,17.60
2022-11-18T17:38:30.926Z,15.90
2022-11-18T17:43:31.192Z,15.20
2022-11-18T17:48:30.451Z,15.80
2022-11-18T17:53:30.820Z,16.00
2022-11-18T17:58:30.217Z,14.90
2022-11-18T18:03:30.265Z,13.70
2022-11-18T18:08:30.045Z,13.40
2022-11-18T18:13:30.116Z,12.60
2022-11-18T18:18:30.059Z,13.10
2022-11-18T18:23:29.891Z,12.10
2022-11-18T18:28:29.828Z,11.20
2022-11-18T18:33:29.772Z,11.70
2022-11-18T18:38:29.753Z,11.20
2022-11-18T18:43:29.575Z,10.70
2022-11-18T18:48:29.546Z,10.00
2022-11-18T18:53:29.570Z,9.10
2022-11-18T18:58:29.694Z,9.00
2022-11-18T19:03:29.585Z,8.90
2022-11-18T19:08:29.439Z,8.50
2022-11-18T19:13:29.339Z,9.10
2022-11-18T19:18:29.284Z,9.70
2022-11-18T19:23:29.162Z,8.00
2022-11-18T19:28:29.128Z,7.10
2022-11-18T19:33:28.937Z,7.50
2022-11-18T19:38:28.893Z,7.00
2022-11-18T19:43:28.852Z,7.90
2022-11-18T19:48:28.894Z,7.00
2022-11-18T19:53:28.701Z,6.80
2022-11-18T19:58:29.079Z,6.80
2022-11-18T20:03:29.594Z,6.80
2022-11-18T20:08:28.679Z,6.80
2022-11-18T20:13:28.661Z,7.20
2022-11-18T20:18:34.478Z,7.30
2022-11-18T20:23:28.342Z,7.30
2022-11-18T20:28:29.076Z,7.70
2022-11-18T20:33:28.637Z,7.20
2022-11-18T20:38:28.449Z,8.00
2022-11-18T20:43:28.870Z,7.30
2022-11-18T20:48:28.145Z,7.30
2022-11-18T20:53:28.296Z,8.10
2022-11-18T20:58:28.059Z,8.50
2022-11-18T21:03:28.246Z,8.40
2022-11-18T21:08:27.868Z,8.70
2022-11-18T21:13:27.881Z,8.70
2022-11-18T21:18:27.723Z,8.30
2022-11-18T21:23:27.618Z,8.90
2022-11-18T21:28:27.730Z,9.00
2022-11-18T21:33:27.517Z,9.30
2022-11-18T21:38:28.945Z,9.90
2022-11-18T21:43:57.940Z,9.80
2022-11-18T21:48:28.382Z,10.10
2022-11-18T21:53:31.161Z,10.50
2022-11-18T21:58:27.911Z,9.60
2022-11-18T22:03:27.326Z,10.30
2022-11-18T22:08:27.783Z,10.40
2022-11-18T22:13:27.140Z,12.00
2022-11-18T22:18:27.156Z,12.60
2022-11-18T22:23:27.290Z,12.10
2022-11-18T22:28:27.003Z,12.00
2022-11-18T22:33:27.308Z,12.60
2022-11-18T22:38:26.773Z,13.40
2022-11-18T22:43:26.895Z,12.40
2022-11-18T22:48:26.722Z,10.90
2022-11-18T22:53:26.551Z,10.60
2022-11-18T22:58:26.746Z,10.20
2022-11-18T23:03:26.556Z,10.80
2022-11-18T23:08:26.481Z,11.30
2022-11-18T23:13:26.901Z,10.00
2022-11-18T23:18:26.631Z,9.80
2022-11-18T23:23:26.186Z,10.30
2022-11-18T23:28:26.451Z,10.30
2022-11-18T23:33:25.944Z,10.50
2022-11-18T23:38:25.908Z,10.40
2022-11-18T23:43:25.835Z,10.10
2022-11-18T23:48:25.846Z,9.70
2022-11-18T23:53:29.687Z,10.60
2022-11-18T23:58:26.442Z,10.30
